Diaz, Arkansas
Current Conditions -  °F | °C
As of 5:56 AM on Friday 19 Dec 2014 (Local Time) from KM19 Reporting Station
Haze Haze  
Wind Chill:   Ceiling: 700
Heat Index:   Visibility: 6mi
Dew Point:   Wind: 8mph
Humidity: 96%   Direction: 20°NNE
Pressure: 30.25"   Gusts: NA
Location:  35.64°N, 91.27°W
Report Text: KM19 191156Z AUTO 02007KT 6SM BR BKN007 OVC043 03/03 A3025 RMK AO2 50007 T00330027 10050 20033 SLP246
Loading
Personal Weather Stations






























Interactive Weather Map New forecast layout! Learn more

10-Day Weather Forecast

Advertisements
Track Severe Weather on mobile